sensor_id;sensor_type;location;lat;lon;timestamp;P1;durP1;ratioP1;P2;durP2;ratioP2
76589;SDS011;65471;55.908;37.880;2023-07-08T00:00:26;65.43;;;19.90;;
76589;SDS011;65471;55.908;37.880;2023-07-08T00:02:53;37.40;;;19.50;;
76589;SDS011;65471;55.908;37.880;2023-07-08T00:07:49;27.33;;;19.02;;
76589;SDS011;65471;55.908;37.880;2023-07-08T00:10:20;34.63;;;18.75;;
76589;SDS011;65471;55.908;37.880;2023-07-08T00:12:50;36.38;;;18.80;;
76589;SDS011;65471;55.908;37.880;2023-07-08T00:15:18;39.08;;;20.35;;
76589;SDS011;65471;55.908;37.880;2023-07-08T00:17:52;33.25;;;19.63;;
76589;SDS011;65471;55.908;37.880;2023-07-08T00:20:32;37.03;;;20.93;;
76589;SDS011;65471;55.908;37.880;2023-07-08T00:23:00;33.50;;;19.88;;
76589;SDS011;65471;55.908;37.880;2023-07-08T00:25:28;31.95;;;19.00;;
76589;SDS011;65471;55.908;37.880;2023-07-08T00:27:55;46.17;;;19.53;;
76589;SDS011;65471;55.908;37.880;2023-07-08T00:30:23;34.17;;;19.17;;
76589;SDS011;65471;55.908;37.880;2023-07-08T00:32:51;42.47;;;19.10;;
76589;SDS011;65471;55.908;37.880;2023-07-08T00:37:57;32.92;;;18.63;;
76589;SDS011;65471;55.908;37.880;2023-07-08T00:40:38;34.78;;;18.67;;
76589;SDS011;65471;55.908;37.880;2023-07-08T00:43:17;36.72;;;18.75;;
76589;SDS011;65471;55.908;37.880;2023-07-08T00:45:51;32.80;;;18.92;;
76589;SDS011;65471;55.908;37.880;2023-07-08T00:48:29;32.28;;;18.08;;
76589;SDS011;65471;55.908;37.880;2023-07-08T00:51:00;40.00;;;18.20;;
76589;SDS011;65471;55.908;37.880;2023-07-08T00:53:30;29.63;;;18.67;;
76589;SDS011;65471;55.908;37.880;2023-07-08T00:58:48;46.92;;;19.33;;
76589;SDS011;65471;55.908;37.880;2023-07-08T01:01:37;48.05;;;19.55;;
76589;SDS011;65471;55.908;37.880;2023-07-08T01:04:09;40.05;;;18.73;;
76589;SDS011;65471;55.908;37.880;2023-07-08T01:06:46;27.08;;;18.40;;
76589;SDS011;65471;55.908;37.880;2023-07-08T01:09:19;33.45;;;17.85;;
76589;SDS011;65471;55.908;37.880;2023-07-08T01:11:46;62.72;;;17.98;;
76589;SDS011;65471;55.908;37.880;2023-07-08T01:14:14;29.13;;;18.95;;
76589;SDS011;65471;55.908;37.880;2023-07-08T01:16:46;30.70;;;18.33;;
76589;SDS011;65471;55.908;37.880;2023-07-08T01:19:14;36.35;;;18.45;;
76589;SDS011;65471;55.908;37.880;2023-07-08T01:24:19;36.08;;;17.48;;
76589;SDS011;65471;55.908;37.880;2023-07-08T01:26:46;30.20;;;16.83;;
76589;SDS011;65471;55.908;37.880;2023-07-08T01:29:13;44.03;;;17.58;;
76589;SDS011;65471;55.908;37.880;2023-07-08T01:31:40;26.77;;;16.85;;
76589;SDS011;65471;55.908;37.880;2023-07-08T01:34:10;41.13;;;17.60;;
76589;SDS011;65471;55.908;37.880;2023-07-08T01:36:39;28.85;;;16.98;;
76589;SDS011;65471;55.908;37.880;2023-07-08T01:39:13;30.52;;;17.77;;
76589;SDS011;65471;55.908;37.880;2023-07-08T01:41:41;32.58;;;17.00;;
76589;SDS011;65471;55.908;37.880;2023-07-08T01:46:49;28.13;;;17.33;;
76589;SDS011;65471;55.908;37.880;2023-07-08T01:49:18;34.72;;;17.38;;
76589;SDS011;65471;55.908;37.880;2023-07-08T01:51:46;40.10;;;16.27;;
76589;SDS011;65471;55.908;37.880;2023-07-08T01:54:15;23.38;;;16.98;;
76589;SDS011;65471;55.908;37.880;2023-07-08T01:56:42;36.95;;;16.83;;
76589;SDS011;65471;55.908;37.880;2023-07-08T01:59:09;35.72;;;17.83;;
76589;SDS011;65471;55.908;37.880;2023-07-08T02:01:36;21.58;;;16.95;;
76589;SDS011;65471;55.908;37.880;2023-07-08T02:04:03;28.67;;;16.15;;
76589;SDS011;65471;55.908;37.880;2023-07-08T02:06:30;31.42;;;17.73;;
76589;SDS011;65471;55.908;37.880;2023-07-08T02:08:57;29.88;;;16.95;;
76589;SDS011;65471;55.908;37.880;2023-07-08T02:11:25;42.20;;;17.02;;
76589;SDS011;65471;55.908;37.880;2023-07-08T02:13:52;27.63;;;16.50;;
76589;SDS011;65471;55.908;37.880;2023-07-08T02:16:19;27.92;;;17.15;;
76589;SDS011;65471;55.908;37.880;2023-07-08T02:18:46;30.23;;;16.52;;
76589;SDS011;65471;55.908;37.880;2023-07-08T02:21:13;25.23;;;17.23;;
76589;SDS011;65471;55.908;37.880;2023-07-08T02:23:40;26.73;;;17.17;;
76589;SDS011;65471;55.908;37.880;2023-07-08T02:26:07;31.38;;;16.58;;
76589;SDS011;65471;55.908;37.880;2023-07-08T02:28:34;35.00;;;17.52;;
76589;SDS011;65471;55.908;37.880;2023-07-08T02:31:01;27.30;;;16.45;;
76589;SDS011;65471;55.908;37.880;2023-07-08T02:33:29;26.13;;;16.48;;
76589;SDS011;65471;55.908;37.880;2023-07-08T02:36:00;25.83;;;17.38;;
76589;SDS011;65471;55.908;37.880;2023-07-08T02:38:27;36.27;;;20.10;;
76589;SDS011;65471;55.908;37.880;2023-07-08T02:40:54;28.48;;;18.83;;
76589;SDS011;65471;55.908;37.880;2023-07-08T02:43:21;31.85;;;18.58;;
76589;SDS011;65471;55.908;37.880;2023-07-08T02:45:51;31.00;;;17.73;;
76589;SDS011;65471;55.908;37.880;2023-07-08T02:48:19;35.40;;;19.00;;
76589;SDS011;65471;55.908;37.880;2023-07-08T02:50:46;39.60;;;18.80;;
76589;SDS011;65471;55.908;37.880;2023-07-08T02:53:13;38.65;;;19.88;;
76589;SDS011;65471;55.908;37.880;2023-07-08T02:55:40;40.38;;;18.13;;
76589;SDS011;65471;55.908;37.880;2023-07-08T02:58:09;33.05;;;18.65;;
76589;SDS011;65471;55.908;37.880;2023-07-08T03:00:36;32.83;;;19.88;;
76589;SDS011;65471;55.908;37.880;2023-07-08T03:03:04;50.17;;;19.38;;
76589;SDS011;65471;55.908;37.880;2023-07-08T03:05:31;33.55;;;19.77;;
76589;SDS011;65471;55.908;37.880;2023-07-08T03:08:00;31.10;;;18.10;;
76589;SDS011;65471;55.908;37.880;2023-07-08T03:10:27;32.00;;;19.65;;
76589;SDS011;65471;55.908;37.880;2023-07-08T03:12:54;38.75;;;20.30;;
76589;SDS011;65471;55.908;37.880;2023-07-08T03:15:22;32.33;;;19.63;;
76589;SDS011;65471;55.908;37.880;2023-07-08T03:17:49;47.75;;;20.33;;
76589;SDS011;65471;55.908;37.880;2023-07-08T03:20:16;38.70;;;19.55;;
76589;SDS011;65471;55.908;37.880;2023-07-08T03:22:43;30.10;;;18.77;;
76589;SDS011;65471;55.908;37.880;2023-07-08T03:25:10;36.40;;;19.60;;
76589;SDS011;65471;55.908;37.880;2023-07-08T03:27:37;34.97;;;19.45;;
76589;SDS011;65471;55.908;37.880;2023-07-08T03:30:04;32.72;;;19.60;;
76589;SDS011;65471;55.908;37.880;2023-07-08T03:32:32;49.35;;;19.27;;
76589;SDS011;65471;55.908;37.880;2023-07-08T03:34:59;39.40;;;20.35;;
76589;SDS011;65471;55.908;37.880;2023-07-08T03:37:29;33.22;;;19.00;;
76589;SDS011;65471;55.908;37.880;2023-07-08T03:39:57;39.00;;;18.50;;
76589;SDS011;65471;55.908;37.880;2023-07-08T03:42:23;32.50;;;19.63;;
76589;SDS011;65471;55.908;37.880;2023-07-08T03:44:51;33.88;;;18.02;;
76589;SDS011;65471;55.908;37.880;2023-07-08T03:47:17;30.40;;;18.38;;
76589;SDS011;65471;55.908;37.880;2023-07-08T03:49:44;27.50;;;18.45;;
76589;SDS011;65471;55.908;37.880;2023-07-08T03:52:14;31.08;;;17.15;;
76589;SDS011;65471;55.908;37.880;2023-07-08T03:54:43;29.70;;;18.42;;
76589;SDS011;65471;55.908;37.880;2023-07-08T03:57:10;27.25;;;17.60;;
76589;SDS011;65471;55.908;37.880;2023-07-08T03:59:37;29.08;;;18.23;;
76589;SDS011;65471;55.908;37.880;2023-07-08T04:02:04;40.42;;;18.48;;
76589;SDS011;65471;55.908;37.880;2023-07-08T04:04:31;35.53;;;18.85;;
76589;SDS011;65471;55.908;37.880;2023-07-08T04:06:59;39.93;;;17.00;;
76589;SDS011;65471;55.908;37.880;2023-07-08T04:09:26;38.83;;;18.20;;
76589;SDS011;65471;55.908;37.880;2023-07-08T04:11:53;36.20;;;17.92;;
76589;SDS011;65471;55.908;37.880;2023-07-08T04:14:21;36.00;;;17.57;;
76589;SDS011;65471;55.908;37.880;2023-07-08T04:16:50;38.83;;;16.40;;
76589;SDS011;65471;55.908;37.880;2023-07-08T04:19:23;28.95;;;16.23;;
76589;SDS011;65471;55.908;37.880;2023-07-08T04:21:50;29.05;;;16.33;;
76589;SDS011;65471;55.908;37.880;2023-07-08T04:24:17;30.77;;;16.35;;
76589;SDS011;65471;55.908;37.880;2023-07-08T04:26:46;32.95;;;18.58;;
76589;SDS011;65471;55.908;37.880;2023-07-08T04:29:17;32.88;;;17.75;;
76589;SDS011;65471;55.908;37.880;2023-07-08T04:31:46;25.58;;;16.20;;
76589;SDS011;65471;55.908;37.880;2023-07-08T04:34:14;29.85;;;16.95;;
76589;SDS011;65471;55.908;37.880;2023-07-08T04:36:42;26.23;;;16.35;;
76589;SDS011;65471;55.908;37.880;2023-07-08T04:39:10;25.52;;;16.77;;
76589;SDS011;65471;55.908;37.880;2023-07-08T04:41:37;29.50;;;16.27;;
76589;SDS011;65471;55.908;37.880;2023-07-08T04:44:11;24.63;;;16.13;;
76589;SDS011;65471;55.908;37.880;2023-07-08T04:49:13;32.28;;;16.63;;
76589;SDS011;65471;55.908;37.880;2023-07-08T04:51:40;40.30;;;17.17;;
76589;SDS011;65471;55.908;37.880;2023-07-08T04:54:08;22.20;;;15.30;;
76589;SDS011;65471;55.908;37.880;2023-07-08T04:59:08;26.05;;;15.45;;
76589;SDS011;65471;55.908;37.880;2023-07-08T05:01:37;25.20;;;14.90;;
76589;SDS011;65471;55.908;37.880;2023-07-08T05:04:04;23.35;;;14.90;;
76589;SDS011;65471;55.908;37.880;2023-07-08T05:06:33;25.20;;;14.57;;
76589;SDS011;65471;55.908;37.880;2023-07-08T05:09:01;24.83;;;14.63;;
76589;SDS011;65471;55.908;37.880;2023-07-08T05:11:29;31.65;;;14.57;;
76589;SDS011;65471;55.908;37.880;2023-07-08T05:13:57;28.35;;;15.13;;
76589;SDS011;65471;55.908;37.880;2023-07-08T05:16:24;24.75;;;14.27;;
76589;SDS011;65471;55.908;37.880;2023-07-08T05:18:51;24.23;;;13.38;;
76589;SDS011;65471;55.908;37.880;2023-07-08T05:21:18;24.65;;;13.65;;
76589;SDS011;65471;55.908;37.880;2023-07-08T05:23:47;28.13;;;13.93;;
76589;SDS011;65471;55.908;37.880;2023-07-08T05:26:17;20.20;;;13.07;;
76589;SDS011;65471;55.908;37.880;2023-07-08T05:28:45;19.55;;;13.52;;
76589;SDS011;65471;55.908;37.880;2023-07-08T05:31:12;21.83;;;14.47;;
76589;SDS011;65471;55.908;37.880;2023-07-08T05:33:39;25.35;;;14.10;;
76589;SDS011;65471;55.908;37.880;2023-07-08T05:36:06;30.48;;;13.90;;
76589;SDS011;65471;55.908;37.880;2023-07-08T05:38:33;29.48;;;14.95;;
76589;SDS011;65471;55.908;37.880;2023-07-08T05:41:00;27.90;;;15.07;;
76589;SDS011;65471;55.908;37.880;2023-07-08T05:43:28;21.73;;;14.07;;
76589;SDS011;65471;55.908;37.880;2023-07-08T05:45:58;29.35;;;13.65;;
76589;SDS011;65471;55.908;37.880;2023-07-08T05:48:38;29.10;;;16.20;;
76589;SDS011;65471;55.908;37.880;2023-07-08T05:51:05;19.33;;;13.57;;
76589;SDS011;65471;55.908;37.880;2023-07-08T05:53:32;24.13;;;13.48;;
76589;SDS011;65471;55.908;37.880;2023-07-08T05:55:59;30.05;;;15.23;;
76589;SDS011;65471;55.908;37.880;2023-07-08T05:58:25;33.00;;;13.75;;
76589;SDS011;65471;55.908;37.880;2023-07-08T06:00:56;21.50;;;13.93;;
76589;SDS011;65471;55.908;37.880;2023-07-08T06:03:25;19.83;;;13.95;;
76589;SDS011;65471;55.908;37.880;2023-07-08T06:05:52;21.83;;;13.35;;
76589;SDS011;65471;55.908;37.880;2023-07-08T06:08:19;18.63;;;13.57;;
76589;SDS011;65471;55.908;37.880;2023-07-08T06:10:47;18.15;;;13.70;;
76589;SDS011;65471;55.908;37.880;2023-07-08T06:13:14;24.52;;;12.95;;
76589;SDS011;65471;55.908;37.880;2023-07-08T06:15:41;25.00;;;14.25;;
76589;SDS011;65471;55.908;37.880;2023-07-08T06:18:08;31.88;;;13.88;;
76589;SDS011;65471;55.908;37.880;2023-07-08T06:20:35;19.30;;;12.98;;
76589;SDS011;65471;55.908;37.880;2023-07-08T06:23:03;15.85;;;13.10;;
76589;SDS011;65471;55.908;37.880;2023-07-08T06:25:30;28.63;;;12.85;;
76589;SDS011;65471;55.908;37.880;2023-07-08T06:27:58;29.27;;;12.77;;
76589;SDS011;65471;55.908;37.880;2023-07-08T06:30:25;23.50;;;12.38;;
76589;SDS011;65471;55.908;37.880;2023-07-08T06:32:52;28.48;;;13.23;;
76589;SDS011;65471;55.908;37.880;2023-07-08T06:35:19;21.95;;;12.48;;
76589;SDS011;65471;55.908;37.880;2023-07-08T06:37:46;24.40;;;12.02;;
76589;SDS011;65471;55.908;37.880;2023-07-08T06:40:13;18.08;;;12.05;;
76589;SDS011;65471;55.908;37.880;2023-07-08T06:42:40;19.92;;;12.45;;
76589;SDS011;65471;55.908;37.880;2023-07-08T06:45:07;20.75;;;12.35;;
76589;SDS011;65471;55.908;37.880;2023-07-08T06:47:34;17.52;;;12.48;;
76589;SDS011;65471;55.908;37.880;2023-07-08T06:50:01;22.38;;;12.30;;
76589;SDS011;65471;55.908;37.880;2023-07-08T06:55:01;21.08;;;11.27;;
76589;SDS011;65471;55.908;37.880;2023-07-08T06:57:31;17.65;;;11.57;;
76589;SDS011;65471;55.908;37.880;2023-07-08T06:59:58;17.45;;;11.75;;
76589;SDS011;65471;55.908;37.880;2023-07-08T07:02:26;16.55;;;12.15;;
76589;SDS011;65471;55.908;37.880;2023-07-08T07:04:53;16.88;;;12.38;;
76589;SDS011;65471;55.908;37.880;2023-07-08T07:07:22;23.55;;;12.85;;
76589;SDS011;65471;55.908;37.880;2023-07-08T07:09:49;42.85;;;13.40;;
76589;SDS011;65471;55.908;37.880;2023-07-08T07:12:16;23.38;;;13.35;;
76589;SDS011;65471;55.908;37.880;2023-07-08T07:14:43;20.10;;;13.00;;
76589;SDS011;65471;55.908;37.880;2023-07-08T07:17:13;22.67;;;13.60;;
76589;SDS011;65471;55.908;37.880;2023-07-08T07:19:40;27.48;;;12.65;;
76589;SDS011;65471;55.908;37.880;2023-07-08T07:22:07;30.23;;;13.48;;
76589;SDS011;65471;55.908;37.880;2023-07-08T07:24:34;22.08;;;13.50;;
76589;SDS011;65471;55.908;37.880;2023-07-08T07:27:01;18.02;;;12.88;;
76589;SDS011;65471;55.908;37.880;2023-07-08T07:29:37;26.80;;;14.20;;
76589;SDS011;65471;55.908;37.880;2023-07-08T07:34:34;19.23;;;12.73;;
76589;SDS011;65471;55.908;37.880;2023-07-08T07:37:00;19.38;;;13.27;;
76589;SDS011;65471;55.908;37.880;2023-07-08T07:39:27;21.42;;;13.05;;
76589;SDS011;65471;55.908;37.880;2023-07-08T07:41:55;20.47;;;12.97;;
76589;SDS011;65471;55.908;37.880;2023-07-08T07:44:22;44.17;;;14.32;;
76589;SDS011;65471;55.908;37.880;2023-07-08T07:46:49;19.52;;;13.57;;
76589;SDS011;65471;55.908;37.880;2023-07-08T07:49:16;22.88;;;13.10;;
76589;SDS011;65471;55.908;37.880;2023-07-08T07:51:42;37.42;;;13.10;;
76589;SDS011;65471;55.908;37.880;2023-07-08T07:54:09;20.65;;;12.60;;
76589;SDS011;65471;55.908;37.880;2023-07-08T07:56:37;28.48;;;14.10;;
76589;SDS011;65471;55.908;37.880;2023-07-08T07:59:04;24.95;;;13.05;;
76589;SDS011;65471;55.908;37.880;2023-07-08T08:01:30;20.80;;;12.32;;
76589;SDS011;65471;55.908;37.880;2023-07-08T08:03:57;20.75;;;12.48;;
76589;SDS011;65471;55.908;37.880;2023-07-08T08:06:24;30.77;;;13.23;;
76589;SDS011;65471;55.908;37.880;2023-07-08T08:08:51;19.30;;;12.82;;
76589;SDS011;65471;55.908;37.880;2023-07-08T08:11:18;22.77;;;13.82;;
76589;SDS011;65471;55.908;37.880;2023-07-08T08:13:46;22.70;;;13.70;;
76589;SDS011;65471;55.908;37.880;2023-07-08T08:16:14;22.42;;;14.07;;
76589;SDS011;65471;55.908;37.880;2023-07-08T08:18:41;25.60;;;13.43;;
76589;SDS011;65471;55.908;37.880;2023-07-08T08:21:08;22.65;;;13.38;;
76589;SDS011;65471;55.908;37.880;2023-07-08T08:23:35;18.23;;;13.52;;
76589;SDS011;65471;55.908;37.880;2023-07-08T08:26:02;18.80;;;11.63;;
76589;SDS011;65471;55.908;37.880;2023-07-08T08:28:29;16.67;;;11.95;;
76589;SDS011;65471;55.908;37.880;2023-07-08T08:30:56;22.08;;;11.07;;
76589;SDS011;65471;55.908;37.880;2023-07-08T08:33:23;27.30;;;11.52;;
76589;SDS011;65471;55.908;37.880;2023-07-08T08:35:50;15.10;;;11.27;;
76589;SDS011;65471;55.908;37.880;2023-07-08T08:38:16;31.92;;;11.43;;
76589;SDS011;65471;55.908;37.880;2023-07-08T08:40:44;18.27;;;11.35;;
76589;SDS011;65471;55.908;37.880;2023-07-08T08:43:16;18.37;;;11.30;;
76589;SDS011;65471;55.908;37.880;2023-07-08T08:45:48;19.50;;;11.55;;
76589;SDS011;65471;55.908;37.880;2023-07-08T08:48:23;22.88;;;12.07;;
76589;SDS011;65471;55.908;37.880;2023-07-08T08:50:55;13.70;;;10.98;;
76589;SDS011;65471;55.908;37.880;2023-07-08T08:53:27;15.70;;;11.05;;
76589;SDS011;65471;55.908;37.880;2023-07-08T09:02:01;18.60;;;10.80;;
76589;SDS011;65471;55.908;37.880;2023-07-08T09:04:56;26.02;;;11.60;;
76589;SDS011;65471;55.908;37.880;2023-07-08T09:07:29;22.42;;;11.73;;
76589;SDS011;65471;55.908;37.880;2023-07-08T09:10:10;16.33;;;11.88;;
76589;SDS011;65471;55.908;37.880;2023-07-08T09:12:46;15.70;;;10.95;;
76589;SDS011;65471;55.908;37.880;2023-07-08T09:15:17;29.42;;;10.98;;
76589;SDS011;65471;55.908;37.880;2023-07-08T09:17:44;19.75;;;10.75;;
76589;SDS011;65471;55.908;37.880;2023-07-08T09:25:40;18.23;;;9.13;;
76589;SDS011;65471;55.908;37.880;2023-07-08T09:28:14;15.95;;;9.63;;
76589;SDS011;65471;55.908;37.880;2023-07-08T09:30:42;11.77;;;9.98;;
76589;SDS011;65471;55.908;37.880;2023-07-08T09:33:15;16.52;;;11.75;;
76589;SDS011;65471;55.908;37.880;2023-07-08T09:35:48;22.08;;;10.00;;
76589;SDS011;65471;55.908;37.880;2023-07-08T09:38:16;25.80;;;10.25;;
76589;SDS011;65471;55.908;37.880;2023-07-08T09:40:48;9.80;;;8.85;;
76589;SDS011;65471;55.908;37.880;2023-07-08T09:45:57;15.05;;;9.30;;
76589;SDS011;65471;55.908;37.880;2023-07-08T09:48:26;17.80;;;9.82;;
76589;SDS011;65471;55.908;37.880;2023-07-08T09:51:01;10.95;;;8.60;;
76589;SDS011;65471;55.908;37.880;2023-07-08T09:55:56;11.82;;;9.02;;
76589;SDS011;65471;55.908;37.880;2023-07-08T09:58:27;12.23;;;9.15;;
76589;SDS011;65471;55.908;37.880;2023-07-08T10:00:59;12.18;;;8.75;;
76589;SDS011;65471;55.908;37.880;2023-07-08T10:03:32;29.98;;;9.32;;
76589;SDS011;65471;55.908;37.880;2023-07-08T10:06:05;13.02;;;9.55;;
76589;SDS011;65471;55.908;37.880;2023-07-08T10:08:47;10.82;;;9.23;;
76589;SDS011;65471;55.908;37.880;2023-07-08T10:14:05;15.85;;;8.93;;
76589;SDS011;65471;55.908;37.880;2023-07-08T10:16:40;9.35;;;8.15;;
76589;SDS011;65471;55.908;37.880;2023-07-08T10:19:15;14.47;;;7.83;;
76589;SDS011;65471;55.908;37.880;2023-07-08T10:29:56;24.88;;;8.50;;
76589;SDS011;65471;55.908;37.880;2023-07-08T10:35:30;8.25;;;7.45;;
76589;SDS011;65471;55.908;37.880;2023-07-08T10:49:24;21.35;;;6.00;;
76589;SDS011;65471;55.908;37.880;2023-07-08T10:54:46;6.32;;;5.82;;
76589;SDS011;65471;55.908;37.880;2023-07-08T11:00:16;6.35;;;5.82;;
76589;SDS011;65471;55.908;37.880;2023-07-08T11:06:13;8.60;;;6.13;;
76589;SDS011;65471;55.908;37.880;2023-07-08T11:08:56;6.10;;;5.57;;
76589;SDS011;65471;55.908;37.880;2023-07-08T11:11:50;5.00;;;4.70;;
76589;SDS011;65471;55.908;37.880;2023-07-08T11:15:06;10.45;;;4.88;;
76589;SDS011;65471;55.908;37.880;2023-07-08T11:17:21;8.43;;;5.20;;
76589;SDS011;65471;55.908;37.880;2023-07-08T11:22:45;12.32;;;5.30;;
76589;SDS011;65471;55.908;37.880;2023-07-08T11:25:19;5.13;;;4.63;;
76589;SDS011;65471;55.908;37.880;2023-07-08T11:27:49;10.73;;;5.75;;
76589;SDS011;65471;55.908;37.880;2023-07-08T11:30:21;6.10;;;4.88;;
76589;SDS011;65471;55.908;37.880;2023-07-08T11:32:57;5.30;;;4.90;;
76589;SDS011;65471;55.908;37.880;2023-07-08T11:35:34;5.57;;;5.05;;
76589;SDS011;65471;55.908;37.880;2023-07-08T11:38:12;5.60;;;5.20;;
76589;SDS011;65471;55.908;37.880;2023-07-08T11:40:59;7.05;;;4.93;;
76589;SDS011;65471;55.908;37.880;2023-07-08T11:44:04;5.70;;;4.82;;
76589;SDS011;65471;55.908;37.880;2023-07-08T11:46:28;8.13;;;4.57;;
76589;SDS011;65471;55.908;37.880;2023-07-08T11:49:13;7.38;;;5.38;;
76589;SDS011;65471;55.908;37.880;2023-07-08T11:51:42;4.70;;;4.40;;
76589;SDS011;65471;55.908;37.880;2023-07-08T11:56:47;5.43;;;4.80;;
76589;SDS011;65471;55.908;37.880;2023-07-08T11:59:18;11.40;;;4.72;;
76589;SDS011;65471;55.908;37.880;2023-07-08T12:04:32;19.65;;;5.13;;
76589;SDS011;65471;55.908;37.880;2023-07-08T12:07:03;5.60;;;5.22;;
76589;SDS011;65471;55.908;37.880;2023-07-08T12:09:38;10.00;;;5.00;;
76589;SDS011;65471;55.908;37.880;2023-07-08T12:12:21;17.00;;;5.43;;
76589;SDS011;65471;55.908;37.880;2023-07-08T12:14:53;6.40;;;5.05;;
76589;SDS011;65471;55.908;37.880;2023-07-08T12:17:29;12.85;;;4.75;;
76589;SDS011;65471;55.908;37.880;2023-07-08T12:19:57;7.68;;;4.82;;
76589;SDS011;65471;55.908;37.880;2023-07-08T12:22:29;17.83;;;5.97;;
76589;SDS011;65471;55.908;37.880;2023-07-08T12:24:56;11.30;;;5.70;;
76589;SDS011;65471;55.908;37.880;2023-07-08T12:27:25;5.20;;;4.80;;
76589;SDS011;65471;55.908;37.880;2023-07-08T12:29:51;16.15;;;5.70;;
76589;SDS011;65471;55.908;37.880;2023-07-08T12:32:19;7.00;;;4.93;;
76589;SDS011;65471;55.908;37.880;2023-07-08T12:34:49;5.32;;;4.47;;
76589;SDS011;65471;55.908;37.880;2023-07-08T12:37:16;14.57;;;5.25;;
76589;SDS011;65471;55.908;37.880;2023-07-08T12:39:43;7.00;;;4.78;;
76589;SDS011;65471;55.908;37.880;2023-07-08T12:42:12;16.67;;;5.18;;
76589;SDS011;65471;55.908;37.880;2023-07-08T12:44:41;5.47;;;4.97;;
76589;SDS011;65471;55.908;37.880;2023-07-08T12:47:10;7.95;;;5.25;;
76589;SDS011;65471;55.908;37.880;2023-07-08T12:49:37;5.40;;;4.93;;
76589;SDS011;65471;55.908;37.880;2023-07-08T12:52:04;5.25;;;4.85;;
76589;SDS011;65471;55.908;37.880;2023-07-08T12:54:31;9.77;;;4.78;;
76589;SDS011;65471;55.908;37.880;2023-07-08T12:59:27;13.88;;;5.88;;
76589;SDS011;65471;55.908;37.880;2023-07-08T13:01:54;19.05;;;5.95;;
76589;SDS011;65471;55.908;37.880;2023-07-08T13:04:21;9.53;;;7.00;;
76589;SDS011;65471;55.908;37.880;2023-07-08T13:06:49;6.60;;;6.00;;
76589;SDS011;65471;55.908;37.880;2023-07-08T13:11:56;125.35;;;19.10;;
76589;SDS011;65471;55.908;37.880;2023-07-08T13:14:24;28.00;;;9.85;;
76589;SDS011;65471;55.908;37.880;2023-07-08T13:19:20;19.48;;;5.97;;
76589;SDS011;65471;55.908;37.880;2023-07-08T13:21:48;9.65;;;6.03;;
76589;SDS011;65471;55.908;37.880;2023-07-08T13:24:17;8.05;;;6.85;;
76589;SDS011;65471;55.908;37.880;2023-07-08T13:26:46;7.72;;;5.85;;
76589;SDS011;65471;55.908;37.880;2023-07-08T13:29:16;16.60;;;8.05;;
76589;SDS011;65471;55.908;37.880;2023-07-08T13:31:49;12.25;;;6.10;;
76589;SDS011;65471;55.908;37.880;2023-07-08T13:34:20;10.52;;;6.32;;
76589;SDS011;65471;55.908;37.880;2023-07-08T13:36:51;9.43;;;6.00;;
76589;SDS011;65471;55.908;37.880;2023-07-08T13:41:57;33.30;;;6.05;;
76589;SDS011;65471;55.908;37.880;2023-07-08T13:44:25;14.93;;;5.60;;
76589;SDS011;65471;55.908;37.880;2023-07-08T13:46:54;5.68;;;5.25;;
76589;SDS011;65471;55.908;37.880;2023-07-08T13:49:30;35.60;;;5.35;;
76589;SDS011;65471;55.908;37.880;2023-07-08T13:54:39;11.95;;;5.40;;
76589;SDS011;65471;55.908;37.880;2023-07-08T13:57:10;37.78;;;6.82;;
76589;SDS011;65471;55.908;37.880;2023-07-08T13:59:39;18.33;;;5.38;;
76589;SDS011;65471;55.908;37.880;2023-07-08T14:02:20;10.30;;;5.00;;
76589;SDS011;65471;55.908;37.880;2023-07-08T14:04:52;22.02;;;5.07;;
76589;SDS011;65471;55.908;37.880;2023-07-08T14:07:21;13.93;;;4.97;;
76589;SDS011;65471;55.908;37.880;2023-07-08T14:09:53;5.78;;;5.20;;
76589;SDS011;65471;55.908;37.880;2023-07-08T14:12:21;17.65;;;5.07;;
76589;SDS011;65471;55.908;37.880;2023-07-08T14:14:50;13.27;;;4.95;;
76589;SDS011;65471;55.908;37.880;2023-07-08T14:17:21;11.02;;;5.10;;
76589;SDS011;65471;55.908;37.880;2023-07-08T14:19:51;14.80;;;5.00;;
76589;SDS011;65471;55.908;37.880;2023-07-08T14:22:22;5.20;;;4.65;;
76589;SDS011;65471;55.908;37.880;2023-07-08T14:24:53;17.98;;;4.13;;
76589;SDS011;65471;55.908;37.880;2023-07-08T14:27:21;15.98;;;4.10;;
76589;SDS011;65471;55.908;37.880;2023-07-08T14:29:49;8.93;;;4.15;;
76589;SDS011;65471;55.908;37.880;2023-07-08T14:32:27;18.60;;;4.53;;
76589;SDS011;65471;55.908;37.880;2023-07-08T14:35:43;20.55;;;4.35;;
76589;SDS011;65471;55.908;37.880;2023-07-08T14:37:52;7.75;;;5.30;;
76589;SDS011;65471;55.908;37.880;2023-07-08T14:40:22;7.60;;;4.78;;
76589;SDS011;65471;55.908;37.880;2023-07-08T14:43:01;11.65;;;5.18;;
76589;SDS011;65471;55.908;37.880;2023-07-08T14:45:32;30.00;;;5.60;;
76589;SDS011;65471;55.908;37.880;2023-07-08T14:48:09;7.30;;;4.93;;
76589;SDS011;65471;55.908;37.880;2023-07-08T14:50:37;17.42;;;5.53;;
76589;SDS011;65471;55.908;37.880;2023-07-08T14:53:04;10.10;;;5.33;;
76589;SDS011;65471;55.908;37.880;2023-07-08T14:55:32;11.63;;;4.73;;
76589;SDS011;65471;55.908;37.880;2023-07-08T14:58:00;7.45;;;5.35;;
76589;SDS011;65471;55.908;37.880;2023-07-08T15:00:29;34.25;;;7.72;;
76589;SDS011;65471;55.908;37.880;2023-07-08T15:02:57;18.83;;;7.40;;
76589;SDS011;65471;55.908;37.880;2023-07-08T15:05:26;10.63;;;6.45;;
76589;SDS011;65471;55.908;37.880;2023-07-08T15:07:55;33.17;;;5.85;;
76589;SDS011;65471;55.908;37.880;2023-07-08T15:10:24;5.47;;;4.80;;
76589;SDS011;65471;55.908;37.880;2023-07-08T15:12:53;24.02;;;6.50;;
76589;SDS011;65471;55.908;37.880;2023-07-08T15:15:21;29.63;;;4.97;;
76589;SDS011;65471;55.908;37.880;2023-07-08T15:17:54;14.48;;;5.55;;
76589;SDS011;65471;55.908;37.880;2023-07-08T15:20:21;14.75;;;4.60;;
76589;SDS011;65471;55.908;37.880;2023-07-08T15:22:49;10.18;;;4.70;;
76589;SDS011;65471;55.908;37.880;2023-07-08T15:25:16;9.97;;;5.40;;
76589;SDS011;65471;55.908;37.880;2023-07-08T15:27:46;158.35;;;26.58;;
76589;SDS011;65471;55.908;37.880;2023-07-08T15:30:17;73.60;;;17.27;;
76589;SDS011;65471;55.908;37.880;2023-07-08T15:32:48;83.90;;;20.15;;
76589;SDS011;65471;55.908;37.880;2023-07-08T15:35:19;48.20;;;11.93;;
76589;SDS011;65471;55.908;37.880;2023-07-08T15:37:51;23.63;;;7.03;;
76589;SDS011;65471;55.908;37.880;2023-07-08T15:40:20;11.77;;;7.15;;
76589;SDS011;65471;55.908;37.880;2023-07-08T15:42:53;37.58;;;8.07;;
76589;SDS011;65471;55.908;37.880;2023-07-08T15:45:23;15.52;;;7.00;;
76589;SDS011;65471;55.908;37.880;2023-07-08T15:47:57;18.10;;;6.38;;
76589;SDS011;65471;55.908;37.880;2023-07-08T15:50:24;27.48;;;6.15;;
76589;SDS011;65471;55.908;37.880;2023-07-08T15:57:57;17.58;;;5.63;;
76589;SDS011;65471;55.908;37.880;2023-07-08T16:00:28;82.53;;;33.33;;
76589;SDS011;65471;55.908;37.880;2023-07-08T16:02:58;28.33;;;8.98;;
76589;SDS011;65471;55.908;37.880;2023-07-08T16:05:28;15.60;;;6.18;;
76589;SDS011;65471;55.908;37.880;2023-07-08T16:07:55;33.95;;;6.28;;
76589;SDS011;65471;55.908;37.880;2023-07-08T16:10:23;17.70;;;7.25;;